Time;durP1;ratioP1;P1;durP2;ratioP2;P2;SDS_P1;SDS_P2;PMS_P1;PMS_P2;Temp;Humidity;BMP_temperature;BMP_pressure;BME280_temperature;BME280_humidity;BME280_pressure;Samples;Min_cycle;Max_cycle;Signal;HPM_P1;HPM_P2
2022/07/01 00:00:11;;;;;;;10.30;6.70;;;;;;;16.07;74.41;100881.72;1750800;82;21461;-89
2022/07/01 00:02:41;;;;;;;8.83;5.80;;;;;;;16.06;74.58;100890.63;1750380;80;21869;-91
2022/07/01 00:05:08;;;;;;;6.15;5.25;;;;;;;16.04;74.76;100889.08;1750250;80;20920;-90
2022/07/01 00:07:46;;;;;;;6.62;6.00;;;;;;;16.02;75.17;100907.70;1750327;82;20888;-91
2022/07/01 00:10:13;;;;;;;9.15;6.62;;;;;;;16.02;75.17;100907.70;1750519;82;21013;-90
2022/07/01 00:12:40;;;;;;;9.75;6.42;;;;;;;16.02;75.07;100902.41;1751218;82;20980;-91
2022/07/01 00:15:09;;;;;;;7.83;5.55;;;;;;;16.04;75.24;100903.14;1750691;82;21298;-91
2022/07/01 00:17:36;;;;;;;6.65;5.85;;;;;;;16.07;75.03;100904.20;1750289;82;20920;-91
2022/07/01 00:20:04;;;;;;;7.30;5.25;;;;;;;16.07;74.80;100900.73;1750332;82;21466;-91
2022/07/01 00:22:31;;;;;;;10.03;5.28;;;;;;;16.05;74.46;100888.96;1750220;80;20971;-89
2022/07/01 00:24:59;;;;;;;7.87;6.80;;;;;;;16.03;73.98;100885.59;1750500;82;20881;-91
2022/07/01 00:27:26;;;;;;;9.08;4.97;;;;;;;16.03;73.68;100894.85;1750511;80;21141;-90
2022/07/01 00:29:53;;;;;;;6.03;4.87;;;;;;;16.04;73.73;100887.75;1750388;82;20975;-90
2022/07/01 00:32:21;;;;;;;8.58;5.33;;;;;;;16.04;73.85;100882.45;1750573;82;21010;-89
2022/07/01 00:34:48;;;;;;;5.47;4.65;;;;;;;16.04;73.96;100876.68;1750278;82;20936;-91
2022/07/01 00:37:14;;;;;;;6.08;4.55;;;;;;;16.04;73.99;100874.03;1750383;82;20912;-90
2022/07/01 00:39:43;;;;;;;5.22;4.72;;;;;;;16.04;74.01;100869.23;1738200;81;21237;-90
2022/07/01 00:42:10;;;;;;;7.67;5.50;;;;;;;16.04;74.00;100866.09;1736371;81;20869;-89
2022/07/01 00:44:37;;;;;;;6.55;5.22;;;;;;;16.05;74.15;100866.94;1737096;81;20909;-91
2022/07/01 00:47:08;;;;;;;6.72;5.28;;;;;;;16.07;74.38;100863.20;1736997;82;20928;-87
2022/07/01 00:49:35;;;;;;;9.85;5.37;;;;;;;16.08;74.46;100867.55;1739656;77;20936;-90
2022/07/01 00:52:02;;;;;;;8.68;5.60;;;;;;;16.11;74.28;100867.78;1739226;77;21051;-90
2022/07/01 00:54:31;;;;;;;7.42;5.62;;;;;;;16.08;74.10;100861.42;1738161;82;20846;-90
2022/07/01 00:56:59;;;;;;;9.80;5.55;;;;;;;16.06;73.97;100862.85;1738129;82;20889;-91
2022/07/01 00:59:26;;;;;;;7.95;5.40;;;;;;;16.02;73.84;100866.70;1736902;82;20893;-90
2022/07/01 01:01:52;;;;;;;10.50;7.42;;;;;;;16.00;73.80;100867.79;1736471;81;20940;-91
2022/07/01 01:04:20;;;;;;;6.20;5.33;;;;;;;15.97;73.97;100868.88;1736571;82;21306;-91
2022/07/01 01:06:47;;;;;;;7.97;5.30;;;;;;;15.93;74.12;100872.72;1737130;82;20822;-91
2022/07/01 01:09:14;;;;;;;5.37;4.50;;;;;;;15.87;74.45;100864.77;1738695;82;20877;-90
2022/07/01 01:11:43;;;;;;;7.50;5.78;;;;;;;15.83;74.66;100863.35;1738784;82;21035;-91
2022/07/01 01:14:10;;;;;;;5.35;4.85;;;;;;;15.79;74.97;100856.62;1739528;77;20944;-91
2022/07/01 01:16:38;;;;;;;10.03;5.80;;;;;;;15.74;75.58;100855.66;1738395;81;21200;-91
2022/07/01 01:19:06;;;;;;;9.05;5.90;;;;;;;15.74;75.86;100855.66;1736501;82;21003;-91
2022/07/01 01:21:34;;;;;;;7.20;6.00;;;;;;;15.72;76.32;100854.09;1736527;82;20889;-91
2022/07/01 01:24:01;;;;;;;9.78;5.62;;;;;;;15.72;76.32;100854.09;1736300;82;21528;-91
2022/07/01 01:26:29;;;;;;;9.38;6.10;;;;;;;15.70;76.09;100851.53;1736460;82;20928;-89
2022/07/01 01:28:56;;;;;;;9.68;5.95;;;;;;;15.68;76.00;100850.80;1736378;82;21273;-90
2022/07/01 01:31:32;;;;;;;10.18;6.40;;;;;;;15.65;75.92;100851.06;1736616;82;20913;-91
2022/07/01 01:34:00;;;;;;;6.97;6.28;;;;;;;15.63;75.79;100848.14;1738520;82;20841;-90
2022/07/01 01:36:27;;;;;;;7.22;5.47;;;;;;;15.58;75.65;100841.89;1737142;82;20913;-91
2022/07/01 01:39:00;;;;;;;8.30;6.60;;;;;;;15.55;75.71;100849.59;1742546;81;21070;-91
2022/07/01 01:41:23;;;;;;;7.85;6.40;;;;;;;15.52;75.75;100842.39;1750434;82;21138;-90
2022/07/01 01:43:50;;;;;;;9.65;6.45;;;;;;;15.51;75.73;100842.02;1750329;80;20865;-88
2022/07/01 01:46:17;;;;;;;7.25;6.25;;;;;;;15.44;76.04;100848.73;1750441;82;20880;-91
2022/07/01 01:48:44;;;;;;;11.45;7.30;;;;;;;15.44;76.04;100848.73;1751597;80;21398;-92
2022/07/01 01:51:11;;;;;;;10.25;6.28;;;;;;;15.42;76.40;100850.66;1752673;80;20912;-91
2022/07/01 01:53:37;;;;;;;8.30;7.22;;;;;;;15.37;77.09;100849.69;1752615;82;21262;-90
2022/07/01 01:56:05;;;;;;;19.60;7.62;;;;;;;15.37;77.09;100849.69;1752643;82;20967;-91
2022/07/01 01:58:32;;;;;;;20.40;8.90;;;;;;;15.37;76.96;100849.69;1750929;82;20975;-91
2022/07/01 02:00:59;;;;;;;16.55;7.95;;;;;;;15.38;76.62;100846.07;1750538;82;21410;-91
2022/07/01 02:03:26;;;;;;;16.00;8.63;;;;;;;15.40;77.05;100848.61;1750483;80;20916;-90
2022/07/01 02:05:52;;;;;;;14.80;9.48;;;;;;;15.49;77.33;100858.47;1750396;80;21838;-91
2022/07/01 02:08:19;;;;;;;13.90;8.65;;;;;;;15.53;77.07;100858.11;1751090;82;20946;-92
2022/07/01 02:10:47;;;;;;;8.95;8.08;;;;;;;15.53;77.07;100858.11;1752342;82;20919;-89
2022/07/01 02:13:15;;;;;;;9.05;6.65;;;;;;;15.55;76.80;100860.65;1750853;82;21397;-90
2022/07/01 02:15:42;;;;;;;10.08;7.17;;;;;;;15.54;76.47;100862.45;1751102;82;20944;-91
2022/07/01 02:18:09;;;;;;;8.85;7.33;;;;;;;15.54;76.40;100865.09;1750276;82;21120;-91
2022/07/01 02:20:36;;;;;;;12.43;7.25;;;;;;;15.54;76.35;100865.59;1750279;82;20915;-91
2022/07/01 02:23:02;;;;;;;8.78;6.97;;;;;;;15.54;76.32;100877.48;1750315;80;21461;-92
2022/07/01 02:25:31;;;;;;;9.18;7.03;;;;;;;15.54;76.32;100877.48;1750371;82;21023;-89
2022/07/01 02:27:58;;;;;;;8.88;7.28;;;;;;;15.54;76.74;100875.67;1750305;82;21335;-90
2022/07/01 02:30:26;;;;;;;9.53;7.50;;;;;;;15.53;76.89;100883.22;1750287;82;21865;-90
2022/07/01 02:32:55;;;;;;;8.73;7.67;;;;;;;15.54;77.05;100880.13;1750231;80;20928;-91
2022/07/01 02:35:22;;;;;;;7.83;7.03;;;;;;;15.57;77.56;100890.94;1750406;82;21652;-90
2022/07/01 02:37:48;;;;;;;13.15;7.97;;;;;;;15.59;77.64;100889.86;1750405;82;20908;-92
2022/07/01 02:40:16;;;;;;;10.68;8.80;;;;;;;15.59;77.64;100889.86;1738744;81;20893;-89
2022/07/01 02:42:43;;;;;;;11.10;8.93;;;;;;;15.63;78.11;100888.67;1737322;82;21223;-88
2022/07/01 02:45:10;;;;;;;12.25;7.90;;;;;;;15.66;78.06;100894.19;1737381;82;21002;-88
2022/07/01 02:47:39;;;;;;;8.13;7.12;;;;;;;15.66;78.06;100894.19;1739192;78;20928;-89
2022/07/01 02:50:09;;;;;;;16.40;8.43;;;;;;;15.73;78.30;100902.04;1739311;77;21402;-90
2022/07/01 02:52:37;;;;;;;9.55;8.40;;;;;;;15.73;78.30;100902.04;1739455;82;20916;-89
2022/07/01 02:55:05;;;;;;;12.23;8.58;;;;;;;15.79;78.58;100899.41;1739469;77;21372;-91
2022/07/01 02:57:32;;;;;;;9.30;8.40;;;;;;;15.81;78.61;100901.43;1738473;82;20937;-87
2022/07/01 02:59:59;;;;;;;12.88;8.20;;;;;;;15.92;78.04;100899.66;1739597;80;20897;-88
2022/07/01 03:02:28;;;;;;;10.55;7.42;;;;;;;15.92;78.04;100899.66;1739440;82;20949;-89
2022/07/01 03:04:55;;;;;;;11.75;7.58;;;;;;;16.01;78.11;100899.88;1737060;82;21445;-92
2022/07/01 03:07:23;;;;;;;9.53;7.60;;;;;;;16.01;78.11;100899.88;1737022;82;21261;-92
2022/07/01 03:09:52;;;;;;;9.60;7.15;;;;;;;16.05;78.04;100907.48;1736496;81;20877;-89
2022/07/01 03:12:24;;;;;;;14.30;7.40;;;;;;;16.13;78.25;100901.57;1736642;82;20944;-91
2022/07/01 03:14:55;;;;;;;7.97;7.17;;;;;;;16.13;78.25;100901.57;1736588;82;20980;-91
2022/07/01 03:17:23;;;;;;;8.30;7.42;;;;;;;16.27;77.97;100906.59;1736178;82;21466;-89
2022/07/01 03:19:51;;;;;;;7.47;6.72;;;;;;;16.27;77.97;100906.59;1736112;82;21162;-90
2022/07/01 03:22:19;;;;;;;11.18;7.33;;;;;;;16.35;77.92;100912.63;1736387;82;21461;-89
2022/07/01 03:24:47;;;;;;;9.20;6.83;;;;;;;16.44;77.87;100903.11;1736318;82;20916;-90
2022/07/01 03:27:15;;;;;;;11.05;6.90;;;;;;;16.50;78.00;100899.48;1736286;82;21498;-90
2022/07/01 03:29:42;;;;;;;7.30;6.15;;;;;;;16.59;77.85;100908.50;1736403;82;20873;-89
2022/07/01 03:32:09;;;;;;;9.15;6.83;;;;;;;16.75;78.39;100910.25;1736910;82;21354;-90
2022/07/01 03:34:39;;;;;;;8.08;6.97;;;;;;;16.75;78.39;100910.25;1736701;81;20893;-90
2022/07/01 03:37:07;;;;;;;8.20;6.62;;;;;;;16.86;78.04;100920.49;1736203;82;20877;-90
2022/07/01 03:39:35;;;;;;;8.98;7.33;;;;;;;16.96;77.53;100915.64;1742198;81;20900;-90
2022/07/01 03:42:03;;;;;;;8.28;7.00;;;;;;;17.05;78.04;100911.40;1750580;82;21445;-90
2022/07/01 03:44:32;;;;;;;10.60;7.62;;;;;;;17.16;78.21;100910.48;1752233;82;21197;-89
2022/07/01 03:46:59;;;;;;;11.73;7.70;;;;;;;17.26;78.38;100906.59;1753299;80;20884;-89
2022/07/01 03:49:26;;;;;;;16.55;8.20;;;;;;;17.35;78.54;100910.64;1752935;82;20931;-89
2022/07/01 03:51:52;;;;;;;11.28;8.60;;;;;;;17.47;78.60;100909.24;1752556;82;20963;-90
2022/07/01 03:54:38;;;;;;;19.48;7.53;;;;;;;17.57;78.58;100897.73;1752219;82;20908;-91
2022/07/01 03:57:08;;;;;;;10.90;7.40;;;;;;;17.69;78.55;100901.14;1750531;80;21423;-90
2022/07/01 03:59:39;;;;;;;10.13;7.78;;;;;;;17.83;78.59;100900.01;1750617;82;20932;-89
2022/07/01 04:02:07;;;;;;;11.03;8.03;;;;;;;17.95;78.52;100893.63;1752111;82;20923;-90
2022/07/01 04:04:39;;;;;;;15.25;8.23;;;;;;;18.10;78.46;100899.91;1751711;82;20928;-90
2022/07/01 04:07:06;;;;;;;18.30;8.45;;;;;;;18.23;78.40;100907.16;1751451;82;20951;-91
2022/07/01 04:09:34;;;;;;;16.77;7.58;;;;;;;18.38;78.10;100904.94;1752772;82;21164;-88
2022/07/01 04:12:01;;;;;;;11.48;6.58;;;;;;;18.53;77.76;100908.90;1751755;82;21003;-92
2022/07/01 04:14:28;;;;;;;10.48;6.08;;;;;;;18.71;77.51;100909.56;1750673;80;21406;-92
2022/07/01 04:16:58;;;;;;;9.45;5.50;;;;;;;19.13;77.24;100915.98;1699484;82;21540;-92
2022/07/01 04:19:25;;;;;;;7.80;5.70;;;;;;;19.68;75.88;100914.86;1750795;82;20892;-93
2022/07/01 04:24:37;;;;;;;6.08;5.50;;;;;;;20.98;71.59;100922.78;1752915;82;20956;-88
2022/07/01 04:27:05;;;;;;;7.87;5.45;;;;;;;21.77;68.80;100921.60;1753792;82;20940;-87
2022/07/01 04:29:34;;;;;;;7.58;4.92;;;;;;;22.47;66.10;100922.77;1751558;80;20912;-92
2022/07/01 04:32:00;;;;;;;8.45;5.03;;;;;;;23.13;63.71;100926.44;1751175;82;20900;-92
2022/07/01 04:34:28;;;;;;;10.25;5.08;;;;;;;23.74;61.41;100922.34;1751024;82;21300;-93
2022/07/01 04:36:57;;;;;;;8.10;5.00;;;;;;;24.29;59.17;100911.83;1750945;82;20868;-94
2022/07/01 04:39:24;;;;;;;10.13;5.37;;;;;;;24.82;57.64;100919.08;1752251;81;20951;-89
2022/07/01 04:42:01;;;;;;;10.10;4.42;;;;;;;25.27;56.26;100919.27;1752450;81;20982;-89
2022/07/01 04:44:34;;;;;;;6.15;4.42;;;;;;;25.61;55.03;100920.14;1753262;80;20928;-93
2022/07/01 04:47:01;;;;;;;8.35;4.92;;;;;;;25.77;54.11;100922.34;1752236;80;21120;-92
2022/07/01 04:49:28;;;;;;;4.80;3.87;;;;;;;25.76;53.85;100920.13;1753373;82;20901;-92
2022/07/01 04:51:55;;;;;;;7.42;4.40;;;;;;;25.81;53.71;100910.17;1753481;80;20920;-91
2022/07/01 04:54:22;;;;;;;9.15;4.00;;;;;;;25.92;53.29;100913.77;1753625;82;20963;-90
2022/07/01 04:56:51;;;;;;;6.08;4.72;;;;;;;26.03;52.56;100916.50;1753505;76;20951;-91
2022/07/01 04:59:19;;;;;;;4.78;4.10;;;;;;;26.16;52.31;100920.71;1753409;82;21075;-91
2022/07/01 05:01:51;;;;;;;6.37;3.80;;;;;;;26.44;51.25;100924.89;1751789;82;20966;-92
2022/07/01 05:04:18;;;;;;;7.95;4.12;;;;;;;26.86;50.50;100927.88;1751865;82;20924;-93
2022/07/01 05:06:46;;;;;;;7.37;4.50;;;;;;;27.33;49.08;100931.84;1750703;82;20861;-94
2022/07/01 05:09:14;;;;;;;8.28;4.85;;;;;;;27.67;47.95;100933.74;1750488;82;21421;-93
2022/07/01 05:11:41;;;;;;;8.63;5.03;;;;;;;27.95;46.60;100931.58;1750632;80;21209;-93
2022/07/01 05:14:09;;;;;;;7.53;4.25;;;;;;;28.21;45.95;100928.16;1750845;80;20881;-91
2022/07/01 05:16:36;;;;;;;7.80;4.58;;;;;;;28.44;45.07;100931.08;1750695;82;20884;-92
2022/07/01 05:21:56;;;;;;;5.55;5.00;;;;;;;28.79;44.07;100924.22;1750654;82;20857;-92
2022/07/01 05:24:25;;;;;;;;;;;;;;;29.00;43.37;100922.70;1753285;82;22120;-90
2022/07/01 05:26:53;;;;;;;8.85;4.92;;;;;;;29.23;43.16;100925.55;1750548;80;20666;-91
2022/07/01 05:29:20;;;;;;;7.60;4.85;;;;;;;29.47;42.84;100918.69;1750384;82;20884;-91
2022/07/01 05:31:47;;;;;;;4.83;4.40;;;;;;;29.80;42.18;100924.59;1750516;80;21880;-91
2022/07/01 05:34:14;;;;;;;6.83;4.28;;;;;;;30.13;41.67;100921.79;1750244;82;21477;-88
2022/07/01 05:36:41;;;;;;;8.35;4.62;;;;;;;30.46;40.93;100920.81;1751248;82;21281;-91
2022/07/01 05:39:09;;;;;;;4.17;3.80;;;;;;;30.64;40.42;100922.80;1750461;82;20853;-90
2022/07/01 05:41:36;;;;;;;8.40;5.75;;;;;;;30.90;40.15;100919.95;1737522;82;20905;-88
2022/07/01 05:44:03;;;;;;;6.87;4.67;;;;;;;30.96;39.56;100920.43;1739700;77;20925;-88
2022/07/01 05:46:30;;;;;;;7.50;4.00;;;;;;;30.75;39.42;100916.19;1739390;82;20881;-91
2022/07/01 05:48:57;;;;;;;7.40;3.90;;;;;;;30.80;39.64;100921.48;1738868;82;21224;-92
2022/07/01 05:51:25;;;;;;;6.12;5.03;;;;;;;30.94;39.48;100921.17;1738708;82;21436;-91
2022/07/01 05:53:52;;;;;;;6.95;4.95;;;;;;;31.15;39.03;100923.23;1736486;82;20980;-92
2022/07/01 05:56:19;;;;;;;20.32;5.30;;;;;;;31.28;38.11;100923.12;1736271;81;21572;-91
2022/07/01 05:58:48;;;;;;;5.70;3.85;;;;;;;31.39;38.24;100917.47;1736308;81;20940;-91
2022/07/01 06:01:15;;;;;;;6.30;4.30;;;;;;;31.63;38.00;100914.98;1737259;82;21144;-91
2022/07/01 06:03:43;;;;;;;4.15;3.85;;;;;;;31.85;37.33;100918.91;1736375;81;20964;-91
2022/07/01 06:06:10;;;;;;;9.40;4.83;;;;;;;32.08;36.99;100907.94;1737060;81;20968;-90
2022/07/01 06:08:37;;;;;;;3.98;3.62;;;;;;;32.31;36.80;100908.06;1736728;82;20928;-92
2022/07/01 06:11:04;;;;;;;9.98;4.40;;;;;;;32.39;36.49;100907.75;1736769;81;20936;-92
2022/07/01 06:13:37;;;;;;;7.65;4.92;;;;;;;32.57;36.39;100912.84;1737027;82;21430;-93
2022/07/01 06:16:06;;;;;;;6.90;4.00;;;;;;;32.81;35.60;100915.92;1735876;81;20956;-91
2022/07/01 06:18:33;;;;;;;7.00;4.12;;;;;;;33.02;35.09;100910.48;1737493;81;20995;-94
2022/07/01 06:21:00;;;;;;;4.70;3.72;;;;;;;33.10;34.98;100906.62;1738731;82;20921;-93
2022/07/01 06:23:27;;;;;;;4.50;4.15;;;;;;;33.32;34.52;100905.52;1738593;82;20908;-91
2022/07/01 06:25:54;;;;;;;7.10;4.25;;;;;;;33.57;34.37;100903.08;1738285;81;21172;-88
2022/07/01 06:28:21;;;;;;;6.10;3.65;;;;;;;33.65;34.44;100906.30;1738221;82;21848;-90
2022/07/01 06:30:49;;;;;;;4.60;3.50;;;;;;;33.86;33.90;100906.72;1737744;82;21381;-92
2022/07/01 06:33:16;;;;;;;6.45;3.25;;;;;;;34.01;32.84;100907.05;1736893;81;21015;-91
2022/07/01 06:35:44;;;;;;;5.72;3.33;;;;;;;33.99;31.99;100906.45;1737195;82;21453;-90
2022/07/01 06:38:11;;;;;;;7.37;3.17;;;;;;;33.96;31.36;100905.59;1736039;82;21155;-89
2022/07/01 06:40:41;;;;;;;5.60;3.27;;;;;;;34.02;31.49;100906.00;1737284;81;20956;-89
2022/07/01 06:43:10;;;;;;;4.15;2.77;;;;;;;34.08;31.29;100899.28;1739380;77;20975;-91
2022/07/01 06:45:37;;;;;;;8.78;4.15;;;;;;;34.19;31.21;100901.98;1739304;80;20932;-91
2022/07/01 06:48:04;;;;;;;6.58;2.90;;;;;;;34.45;31.51;100891.59;1739275;82;20936;-89
2022/07/01 06:50:32;;;;;;;5.40;2.75;;;;;;;34.71;30.15;100887.97;1738760;82;21524;-92
2022/07/01 06:52:59;;;;;;;3.35;2.45;;;;;;;34.88;29.61;100891.55;1737287;82;20869;-91
2022/07/01 06:55:27;;;;;;;3.58;2.45;;;;;;;35.01;29.17;100882.22;1737158;82;21394;-91
2022/07/01 06:57:54;;;;;;;8.85;2.83;;;;;;;35.11;28.72;100878.30;1737052;82;21457;-90
2022/07/01 07:00:21;;;;;;;3.37;2.45;;;;;;;35.26;28.60;100886.74;1737465;82;21560;-92
2022/07/01 07:02:48;;;;;;;4.85;2.27;;;;;;;35.52;28.43;100881.63;1736837;82;21816;-92
2022/07/01 07:05:17;;;;;;;4.67;2.50;;;;;;;35.76;27.31;100877.34;1736692;82;20857;-92
2022/07/01 07:07:46;;;;;;;4.53;1.77;;;;;;;35.87;26.12;100879.12;1736956;81;20952;-89
2022/07/01 07:10:12;;;;;;;2.47;1.25;;;;;;;36.00;26.10;100868.36;1737047;81;20916;-90
2022/07/01 07:12:41;;;;;;;3.42;2.00;;;;;;;36.14;24.42;100875.09;1737056;82;20870;-91
2022/07/01 07:15:10;;;;;;;1.42;1.17;;;;;;;36.19;24.39;100881.95;1737076;81;21106;-88
2022/07/01 07:17:37;;;;;;;3.92;1.30;;;;;;;36.28;24.29;100869.48;1737740;82;20905;-91
2022/07/01 07:20:06;;;;;;;2.55;1.17;;;;;;;36.49;24.01;100872.45;1737167;82;20913;-91
2022/07/01 07:22:34;;;;;;;1.12;0.82;;;;;;;36.71;23.41;100875.95;1737163;81;20948;-91
2022/07/01 07:25:01;;;;;;;6.87;1.60;;;;;;;36.90;23.16;100873.63;1736834;82;20895;-91
2022/07/01 07:27:29;;;;;;;1.77;0.78;;;;;;;37.02;22.75;100871.24;1737564;82;22355;-90
2022/07/01 07:29:56;;;;;;;2.37;1.37;;;;;;;36.98;22.16;100870.97;1737023;82;20937;-92
2022/07/01 07:32:23;;;;;;;3.17;0.90;;;;;;;36.89;22.08;100875.27;1737243;82;20929;-89
2022/07/01 07:34:50;;;;;;;6.10;1.20;;;;;;;36.88;21.72;100877.71;1736914;81;20944;-92
2022/07/01 07:37:17;;;;;;;4.12;1.10;;;;;;;36.82;21.80;100867.81;1736599;82;20853;-91
2022/07/01 07:39:44;;;;;;;2.08;1.10;;;;;;;36.69;22.03;100867.19;1737304;82;21161;-89
2022/07/01 07:42:11;;;;;;;3.02;1.10;;;;;;;36.55;21.94;100870.02;1746911;76;20987;-89
2022/07/01 07:44:38;;;;;;;3.00;1.10;;;;;;;36.59;22.09;100865.69;1747141;76;20913;-91
2022/07/01 07:47:07;;;;;;;1.72;1.40;;;;;;;36.76;21.97;100875.16;1746600;81;20857;-93
2022/07/01 07:49:33;;;;;;;3.40;0.98;;;;;;;37.05;22.12;100873.47;1746802;82;20885;-90
2022/07/01 07:52:00;;;;;;;2.83;0.88;;;;;;;37.27;21.12;100874.75;1745617;82;20986;-91
2022/07/01 07:55:48;;;;;;;5.97;1.42;;;;;;;37.12;21.18;100874.91;1817820;79;22464;-90
2022/07/01 07:58:15;;;;;;;8.40;1.00;;;;;;;36.91;21.42;100869.83;1726343;82;20963;-92
2022/07/01 08:00:44;;;;;;;3.25;1.32;;;;;;;36.86;21.32;100873.05;1755613;81;21226;-90
2022/07/01 08:03:13;;;;;;;3.87;0.93;;;;;;;36.91;21.51;100870.38;1756128;81;20896;-91
2022/07/01 08:05:40;;;;;;;8.23;1.22;;;;;;;37.11;21.29;100863.70;1755830;81;20932;-91
2022/07/01 08:08:07;;;;;;;5.92;1.37;;;;;;;37.39;21.04;100869.88;1756040;81;20948;-91
2022/07/01 08:10:35;;;;;;;7.08;1.22;;;;;;;37.54;20.57;100866.41;1755566;81;20983;-92
2022/07/01 08:13:04;;;;;;;2.72;1.10;;;;;;;37.57;20.54;100867.81;1755753;81;21193;-90
2022/07/01 08:15:31;;;;;;;4.70;1.07;;;;;;;37.53;20.19;100868.84;1756271;81;20888;-90
2022/07/01 08:17:58;;;;;;;6.08;0.78;;;;;;;37.52;19.88;100861.73;1756384;81;20932;-92
2022/07/01 08:20:27;;;;;;;4.05;0.98;;;;;;;37.41;19.95;100864.15;1755962;81;20912;-90
2022/07/01 08:22:54;;;;;;;1.50;0.60;;;;;;;37.43;19.68;100869.62;1755553;81;20960;-89
2022/07/01 08:25:21;;;;;;;2.37;0.72;;;;;;;37.41;19.38;100858.67;1755717;81;21145;-90
2022/07/01 08:27:48;;;;;;;1.70;0.68;;;;;;;37.42;19.67;100865.27;1698511;83;20916;-91
2022/07/01 08:30:15;;;;;;;1.40;0.72;;;;;;;37.42;19.82;100863.89;1755985;81;21031;-90
2022/07/01 08:32:44;;;;;;;2.52;0.75;;;;;;;37.33;19.79;100860.83;1755611;81;20916;-93
2022/07/01 08:35:12;;;;;;;4.03;1.42;;;;;;;37.27;20.07;100858.33;1755623;81;21050;-90
2022/07/01 08:37:39;;;;;;;4.55;0.98;;;;;;;37.32;20.04;100850.96;1755609;81;21210;-90
2022/07/01 08:40:09;;;;;;;3.80;1.30;;;;;;;37.47;19.95;100852.96;1757435;81;21385;-88
2022/07/01 08:42:37;;;;;;;2.25;0.80;;;;;;;37.59;19.57;100854.13;1758142;78;20981;-87
2022/07/01 08:45:04;;;;;;;50.30;45.20;;;;;;;37.60;19.14;100850.84;1756812;78;20904;-89
2022/07/01 08:47:32;;;;;;;3.22;2.27;;;;;;;37.40;19.88;100852.91;1755791;81;21014;-89
2022/07/01 08:50:02;;;;;;;9.90;6.42;;;;;;;37.34;20.00;100852.08;1755705;81;21301;-89
2022/07/01 08:52:29;;;;;;;7.08;1.98;;;;;;;37.27;19.74;100859.70;1755099;81;20892;-91
2022/07/01 08:54:56;;;;;;;19.17;17.27;;;;;;;37.14;19.95;100852.77;1746505;81;20858;-90
2022/07/01 08:57:25;;;;;;;7.83;2.15;;;;;;;37.02;19.87;100857.57;1738756;82;21009;-89
2022/07/01 09:00:05;;;;;;;2.65;0.98;;;;;;;36.98;19.77;100852.38;1739155;82;21050;-92
2022/07/01 09:03:00;;;;;;;8.35;2.12;;;;;;;36.82;19.98;100851.41;1738253;82;21234;-88
2022/07/01 09:05:33;;;;;;;1.47;1.00;;;;;;;36.79;19.99;100843.75;1738794;82;20980;-89
2022/07/01 09:08:02;;;;;;;2.27;1.00;;;;;;;36.88;20.37;100846.27;1738968;82;20944;-92
2022/07/01 09:10:34;;;;;;;7.25;0.95;;;;;;;36.72;19.83;100851.62;1709600;83;21370;-90
2022/07/01 09:13:07;;;;;;;;;;;;;;;36.79;20.32;100841.83;1778766;80;20921;-90
2022/07/01 09:15:35;;;;;;;6.12;4.78;;;;;;;36.95;20.21;100841.95;1774829;80;21160;-89
2022/07/01 09:18:17;;;;;;;6.70;1.70;;;;;;;36.89;20.66;100846.02;1775486;80;21516;-89
2022/07/01 09:20:48;;;;;;;4.85;2.77;;;;;;;36.85;21.02;100845.44;1738689;82;20885;-91
2022/07/01 09:23:18;;;;;;;12.23;3.65;;;;;;;36.95;21.08;100843.31;1775730;80;20865;-90
2022/07/01 09:25:48;;;;;;;2.47;0.68;;;;;;;37.09;20.88;100836.34;1775927;80;21053;-91
2022/07/01 09:28:21;;;;;;;3.33;2.98;;;;;;;37.23;21.17;100837.52;1775573;80;21589;-90
2022/07/01 09:30:54;;;;;;;5.87;3.02;;;;;;;37.42;20.77;100836.53;1775478;80;21019;-90
2022/07/01 09:33:31;;;;;;;2.17;1.98;;;;;;;37.50;20.62;100837.37;1775939;80;20920;-92
2022/07/01 09:36:02;;;;;;;1.10;1.00;;;;;;;37.37;20.21;100831.56;1773800;80;20932;-90
2022/07/01 09:38:29;;;;;;;1.27;1.20;;;;;;;37.29;20.58;100827.44;1777182;80;20853;-95
2022/07/01 09:40:57;;;;;;;5.12;4.30;;;;;;;37.16;20.48;100832.83;1778468;79;21257;-90
2022/07/01 09:43:32;;;;;;;1.05;0.90;;;;;;;37.16;20.63;100827.36;1741019;82;20957;-89
2022/07/01 09:46:10;;;;;;;1.60;1.00;;;;;;;37.11;20.34;100824.59;1777701;80;20912;-88
2022/07/01 09:48:42;;;;;;;3.72;3.27;;;;;;;37.25;20.32;100825.76;1778189;79;20909;-89
2022/07/01 09:51:10;;;;;;;;;;;;;;;37.33;19.92;100820.31;1780205;80;20912;-88
2022/07/01 09:53:38;;;;;;;2.58;1.15;;;;;;;37.36;19.81;100822.54;1776511;80;21284;-88
2022/07/01 09:56:05;;;;;;;26.60;23.67;;;;;;;37.39;20.30;100824.73;1737375;82;21437;-88
2022/07/01 09:58:35;;;;;;;6.75;5.95;;;;;;;37.41;20.14;100814.34;1755208;81;21347;-88
2022/07/01 10:01:02;;;;;;;13.05;11.73;;;;;;;37.40;19.75;100820.08;1753899;80;20976;-89
2022/07/01 10:03:32;;;;;;;4.65;3.52;;;;;;;37.41;20.35;100821.19;1753172;80;20919;-88
2022/07/01 10:06:31;;;;;;;2.83;1.02;;;;;;;37.50;20.50;100812.73;1752885;80;21580;-91
2022/07/01 10:09:22;;;;;;;4.03;2.77;;;;;;;37.57;20.57;100816.63;1753001;80;20984;-91
2022/07/01 10:12:19;;;;;;;1.27;0.82;;;;;;;37.69;20.40;100811.76;1752998;81;20908;-90
2022/07/01 10:14:46;;;;;;;3.85;2.12;;;;;;;37.88;20.28;100812.06;1753167;81;21445;-89
2022/07/01 10:17:32;;;;;;;3.02;0.95;;;;;;;38.01;20.17;100811.29;1753187;81;20999;-87
2022/07/01 10:20:13;;;;;;;3.62;1.92;;;;;;;37.97;19.95;100813.73;1753481;81;21090;-90
2022/07/01 10:22:40;;;;;;;4.08;3.70;;;;;;;37.89;19.83;100803.33;1753750;80;20870;-86
2022/07/01 10:25:41;;;;;;;5.35;2.70;;;;;;;37.65;19.69;100802.98;1753901;82;20908;-90
2022/07/01 10:28:23;;;;;;;2.00;1.87;;;;;;;37.52;19.65;100797.43;1753736;80;21023;-89
2022/07/01 10:31:11;;;;;;;5.60;0.90;;;;;;;37.34;19.73;100800.09;1754018;80;20920;-88
2022/07/01 10:33:58;;;;;;;15.85;13.83;;;;;;;37.22;20.11;100783.06;1752890;80;21230;-91
2022/07/01 10:36:29;;;;;;;1.25;0.98;;;;;;;37.25;19.97;100779.26;1753046;81;20936;-89
2022/07/01 10:39:07;;;;;;;3.22;1.50;;;;;;;37.29;20.06;100780.38;1755184;82;20920;-88
2022/07/01 10:41:57;;;;;;;7.42;4.47;;;;;;;37.36;20.10;100777.95;1756055;79;20940;-88
2022/07/01 10:44:25;;;;;;;5.70;3.45;;;;;;;37.39;20.15;100771.93;1753856;81;20924;-92
2022/07/01 10:46:57;;;;;;;3.52;2.83;;;;;;;37.22;20.07;100768.86;1754197;82;21112;-90
2022/07/01 10:49:42;;;;;;;3.22;2.67;;;;;;;37.23;20.19;100768.31;1753513;82;20956;-91
2022/07/01 10:52:18;;;;;;;3.17;1.00;;;;;;;37.08;20.64;100760.30;1754060;82;20892;-89
2022/07/01 10:54:48;;;;;;;3.45;0.80;;;;;;;37.02;20.56;100758.61;1757722;80;20918;-91
2022/07/01 10:57:23;;;;;;;11.78;2.70;;;;;;;37.03;20.40;100768.45;1775857;80;20956;-91
2022/07/01 11:00:04;;;;;;;4.87;1.77;;;;;;;37.05;20.13;100759.98;1775820;80;21064;-90
2022/07/01 11:02:36;;;;;;;4.85;1.07;;;;;;;36.97;20.05;100757.75;1775811;80;20977;-90
2022/07/01 11:05:10;;;;;;;5.08;1.30;;;;;;;36.84;20.16;100764.50;1775044;80;20995;-93
2022/07/01 11:07:42;;;;;;;3.33;0.98;;;;;;;36.77;20.84;100757.08;1776029;80;20900;-92
2022/07/01 11:10:13;;;;;;;2.35;0.88;;;;;;;36.74;21.39;100754.34;1776538;80;20940;-96
2022/07/01 11:12:46;;;;;;;3.15;1.52;;;;;;;36.75;21.35;100749.69;1776510;80;21129;-93
2022/07/01 11:15:11;;;;;;;119.05;108.45;;;;;;;36.63;21.02;100753.44;1775194;80;21003;-91
2022/07/01 11:17:48;;;;;;;160.00;145.70;;;;;;;36.44;21.01;100759.84;1776064;80;20888;-93
2022/07/01 11:20:18;;;;;;;5.00;4.40;;;;;;;36.20;21.19;100747.08;1775792;80;20928;-94
2022/07/01 11:22:45;;;;;;;1.95;1.15;;;;;;;36.01;21.40;100754.78;1753949;80;21533;-93
2022/07/01 11:25:13;;;;;;;5.45;0.95;;;;;;;35.87;21.06;100751.65;1776028;80;21342;-92
2022/07/01 11:27:40;;;;;;;1.17;1.07;;;;;;;35.69;21.74;100752.01;1776080;80;21011;-92
2022/07/01 11:30:12;;;;;;;3.70;1.22;;;;;;;35.62;21.44;100743.14;1754697;80;20845;-93
2022/07/01 11:32:43;;;;;;;5.17;1.22;;;;;;;35.56;21.91;100746.92;1739136;82;20917;-90
2022/07/01 11:41:00;;;;;;;6.78;1.20;;;;;;;34.76;22.47;100747.20;1778700;79;20908;-91
2022/07/01 11:43:36;;;;;;;3.22;1.02;;;;;;;34.32;22.91;100743.48;1778021;80;20892;-91
2022/07/01 11:46:05;;;;;;;3.35;1.17;;;;;;;33.98;23.40;100742.06;1777783;80;21521;-92